createdAt,value
2019-03-08T00:00:09.655Z,2.50
2019-03-08T00:01:09.667Z,1.50
2019-03-08T00:02:09.685Z,2.90
2019-03-08T00:03:09.696Z,1.50
2019-03-08T00:04:09.714Z,1.90
2019-03-08T00:05:09.729Z,1.40
2019-03-08T00:06:09.744Z,2.80
2019-03-08T00:07:09.758Z,2.30
2019-03-08T00:08:09.772Z,2.10
2019-03-08T00:09:09.792Z,2.40
2019-03-08T00:10:09.804Z,2.80
2019-03-08T00:11:09.818Z,2.20
2019-03-08T00:12:09.833Z,3.10
2019-03-08T00:13:09.851Z,3.10
2019-03-08T00:14:09.868Z,3.00
2019-03-08T00:15:09.878Z,2.60
2019-03-08T00:16:09.897Z,1.30
2019-03-08T00:17:09.911Z,1.50
2019-03-08T00:18:09.925Z,2.20
2019-03-08T00:19:10.309Z,2.00
2019-03-08T00:20:09.954Z,1.40
2019-03-08T00:21:09.970Z,1.50
2019-03-08T00:22:09.986Z,1.70
2019-03-08T00:23:10.003Z,2.00
2019-03-08T00:24:10.018Z,1.30
2019-03-08T00:25:10.032Z,1.40
2019-03-08T00:26:10.044Z,2.10
2019-03-08T00:27:10.061Z,2.90
2019-03-08T00:28:10.077Z,2.80
2019-03-08T00:29:10.090Z,4.80
2019-03-08T00:30:10.105Z,2.00
2019-03-08T00:31:10.120Z,2.30
2019-03-08T00:32:10.137Z,2.40
2019-03-08T00:33:10.151Z,2.30
2019-03-08T00:34:10.164Z,1.90
2019-03-08T00:35:10.180Z,2.40
2019-03-08T00:36:10.196Z,1.30
2019-03-08T00:37:10.211Z,2.30
2019-03-08T00:38:10.223Z,3.90
2019-03-08T00:39:10.238Z,3.00
2019-03-08T00:40:10.259Z,2.00
2019-03-08T00:41:10.270Z,1.80
2019-03-08T00:42:10.285Z,2.90
2019-03-08T00:43:10.300Z,2.00
2019-03-08T00:44:10.312Z,1.30
2019-03-08T00:45:10.330Z,4.10
2019-03-08T00:46:10.345Z,1.30
2019-03-08T00:47:10.357Z,3.70
2019-03-08T00:48:10.389Z,2.50
2019-03-08T00:49:10.396Z,3.30
2019-03-08T00:50:10.424Z,3.70
2019-03-08T00:51:10.422Z,2.20
2019-03-08T00:52:10.434Z,2.50
2019-03-08T00:53:10.449Z,2.20
2019-03-08T00:54:10.468Z,2.20
2019-03-08T00:55:10.482Z,1.70
2019-03-08T00:56:10.494Z,1.50
2019-03-08T00:57:10.510Z,2.10
2019-03-08T00:58:10.527Z,2.10
2019-03-08T00:59:10.539Z,2.40
2019-03-08T01:00:10.553Z,2.40
2019-03-08T01:01:10.570Z,2.50
2019-03-08T01:02:10.584Z,2.40
2019-03-08T01:03:10.599Z,2.00
2019-03-08T01:04:10.614Z,2.50
2019-03-08T01:05:10.628Z,1.80
2019-03-08T01:06:10.643Z,2.70
2019-03-08T01:07:10.660Z,1.70
2019-03-08T01:08:10.674Z,2.60
2019-03-08T01:09:10.690Z,2.50
2019-03-08T01:10:10.704Z,2.30
2019-03-08T01:11:10.718Z,2.60
2019-03-08T01:12:10.735Z,1.40
2019-03-08T01:13:10.747Z,1.70
2019-03-08T01:14:10.762Z,3.00
2019-03-08T01:15:10.777Z,3.20
2019-03-08T01:16:10.794Z,1.30
2019-03-08T01:17:10.817Z,2.80
2019-03-08T01:18:10.884Z,1.30
2019-03-08T01:19:10.891Z,1.80
2019-03-08T01:20:10.914Z,2.90
2019-03-08T01:21:10.907Z,2.10
2019-03-08T01:22:10.934Z,3.40
2019-03-08T01:23:10.954Z,2.50
2019-03-08T01:24:10.965Z,1.90
2019-03-08T01:25:10.966Z,1.60
2019-03-08T01:26:10.968Z,2.80
2019-03-08T01:27:10.954Z,3.70
2019-03-08T01:28:10.977Z,3.10
2019-03-08T01:29:10.989Z,1.40
2019-03-08T01:30:11.000Z,1.40
2019-03-08T01:31:11.015Z,1.30
2019-03-08T01:32:11.031Z,2.00
2019-03-08T01:33:11.046Z,2.70
2019-03-08T01:34:11.059Z,2.90
2019-03-08T01:35:11.076Z,3.20
2019-03-08T01:36:11.090Z,2.10
2019-03-08T01:37:11.108Z,1.50
2019-03-08T01:38:11.118Z,1.70
2019-03-08T01:39:11.136Z,2.00
2019-03-08T01:40:11.149Z,2.00
2019-03-08T01:41:11.165Z,1.40
2019-03-08T01:42:11.178Z,1.30
2019-03-08T01:43:11.198Z,2.80
2019-03-08T01:44:11.209Z,1.70
2019-03-08T01:45:11.224Z,1.60
2019-03-08T01:46:11.241Z,2.30
2019-03-08T01:47:11.252Z,1.60
2019-03-08T01:48:11.270Z,2.90
2019-03-08T01:49:11.286Z,1.80
2019-03-08T01:50:11.294Z,1.50
2019-03-08T01:51:11.314Z,1.70
2019-03-08T01:52:11.326Z,2.10
2019-03-08T01:53:11.341Z,2.40
2019-03-08T01:54:11.356Z,2.00
2019-03-08T01:55:11.376Z,3.30
2019-03-08T01:56:11.387Z,1.70
2019-03-08T01:57:11.403Z,1.40
2019-03-08T01:58:11.415Z,1.30
2019-03-08T01:59:11.431Z,2.60
2019-03-08T02:00:11.444Z,2.30
2019-03-08T02:01:11.461Z,3.10
2019-03-08T02:02:11.473Z,2.00
2019-03-08T02:03:11.790Z,1.50
2019-03-08T02:04:11.504Z,3.20
2019-03-08T02:05:11.519Z,2.00
2019-03-08T02:06:11.533Z,1.40
2019-03-08T02:07:11.547Z,1.80
2019-03-08T02:08:11.824Z,3.40
2019-03-08T02:09:11.580Z,3.50
2019-03-08T02:10:11.592Z,1.60
2019-03-08T02:11:11.605Z,2.60
2019-03-08T02:12:11.622Z,3.60
2019-03-08T02:13:11.635Z,1.90
2019-03-08T02:14:11.647Z,1.80
2019-03-08T02:15:11.665Z,2.70
2019-03-08T02:16:11.681Z,3.90
2019-03-08T02:17:11.692Z,5.10
2019-03-08T02:18:11.709Z,2.40
2019-03-08T02:19:11.731Z,1.60
2019-03-08T02:20:11.737Z,4.10
2019-03-08T02:21:11.755Z,1.40
2019-03-08T02:22:11.768Z,2.00
2019-03-08T02:23:11.782Z,2.70
2019-03-08T02:24:11.798Z,2.10
2019-03-08T02:25:11.812Z,3.30
2019-03-08T02:26:11.827Z,1.80
2019-03-08T02:27:11.843Z,2.20
2019-03-08T02:28:11.855Z,2.60
2019-03-08T02:29:11.871Z,1.80
2019-03-08T02:30:11.885Z,1.60
2019-03-08T02:31:11.901Z,1.90
2019-03-08T02:32:11.915Z,2.30
2019-03-08T02:33:11.930Z,1.40
2019-03-08T02:34:11.943Z,2.40
2019-03-08T02:35:11.998Z,3.10
2019-03-08T02:36:11.974Z,2.40
2019-03-08T02:37:11.989Z,1.60
2019-03-08T02:38:12.001Z,1.40
2019-03-08T02:39:12.018Z,1.80
2019-03-08T02:40:12.036Z,2.30
2019-03-08T02:41:12.047Z,2.00
2019-03-08T02:42:12.062Z,2.60
2019-03-08T02:43:12.077Z,4.00
2019-03-08T02:44:12.092Z,1.70
2019-03-08T02:45:12.118Z,2.00
2019-03-08T02:46:12.122Z,2.40
2019-03-08T02:47:12.136Z,1.50
2019-03-08T02:48:12.152Z,2.30
2019-03-08T02:49:12.166Z,2.20
2019-03-08T02:50:12.180Z,2.90
2019-03-08T02:51:12.197Z,2.30
2019-03-08T02:52:12.211Z,4.70
2019-03-08T02:53:12.224Z,2.40
2019-03-08T02:54:12.238Z,1.50
2019-03-08T02:55:12.257Z,1.40
2019-03-08T02:56:12.270Z,2.30
2019-03-08T02:57:12.287Z,2.40
2019-03-08T02:58:12.299Z,2.20
2019-03-08T02:59:12.313Z,1.70
2019-03-08T03:00:12.329Z,2.10
2019-03-08T03:01:12.343Z,2.40
2019-03-08T03:02:12.360Z,1.40
2019-03-08T03:03:12.372Z,1.60
2019-03-08T03:04:12.387Z,1.50
2019-03-08T03:05:12.403Z,1.90
2019-03-08T03:06:12.420Z,4.60
2019-03-08T03:07:12.431Z,2.40
2019-03-08T03:08:12.447Z,2.40
2019-03-08T03:09:12.462Z,1.80
2019-03-08T03:10:12.476Z,2.00
2019-03-08T03:11:12.493Z,1.40
2019-03-08T03:12:12.507Z,1.40
2019-03-08T03:13:12.519Z,2.90
2019-03-08T03:14:12.537Z,1.80
2019-03-08T03:15:12.551Z,1.80
2019-03-08T03:16:12.567Z,1.50
2019-03-08T03:17:12.579Z,1.40
2019-03-08T03:18:12.724Z,3.30
2019-03-08T03:19:12.609Z,2.70
2019-03-08T03:20:12.626Z,1.50
2019-03-08T03:21:12.639Z,1.40
2019-03-08T03:22:12.658Z,2.30
2019-03-08T03:23:12.707Z,3.60
2019-03-08T03:24:12.739Z,1.10
2019-03-08T03:25:12.739Z,1.40
2019-03-08T03:26:12.747Z,2.80
2019-03-08T03:27:12.806Z,3.60
2019-03-08T03:28:12.804Z,2.00
2019-03-08T03:29:12.800Z,1.20
2019-03-08T03:30:12.807Z,2.50
2019-03-08T03:31:12.811Z,2.90
2019-03-08T03:32:12.817Z,2.50
2019-03-08T03:33:12.819Z,2.10
2019-03-08T03:34:12.834Z,1.60
2019-03-08T03:35:12.850Z,2.00
2019-03-08T03:36:12.864Z,2.40
2019-03-08T03:37:12.879Z,2.10
2019-03-08T03:38:12.897Z,1.30
2019-03-08T03:39:12.911Z,2.10
2019-03-08T03:40:12.926Z,1.80
2019-03-08T03:41:12.942Z,2.00
2019-03-08T03:42:12.956Z,1.40
2019-03-08T03:43:12.972Z,2.30
2019-03-08T03:44:12.985Z,4.40
2019-03-08T03:45:12.999Z,1.80
2019-03-08T03:46:13.016Z,1.60
2019-03-08T03:47:13.030Z,1.30
2019-03-08T03:48:13.046Z,2.40
2019-03-08T03:49:13.061Z,2.80
2019-03-08T03:50:13.076Z,2.50
2019-03-08T03:51:13.093Z,2.70
2019-03-08T03:52:13.107Z,2.70
2019-03-08T03:53:13.120Z,1.80
2019-03-08T03:54:13.135Z,1.40
2019-03-08T03:55:13.151Z,2.80
2019-03-08T03:56:13.167Z,2.50
2019-03-08T03:57:13.185Z,1.50
2019-03-08T03:58:13.195Z,1.60
2019-03-08T03:59:13.213Z,1.30
2019-03-08T04:00:13.228Z,2.20
2019-03-08T04:01:13.249Z,1.60
2019-03-08T04:02:13.259Z,3.00
2019-03-08T04:03:13.275Z,1.80
2019-03-08T04:04:13.290Z,3.30
2019-03-08T04:05:13.318Z,1.30
2019-03-08T04:06:13.317Z,1.30
2019-03-08T04:07:13.333Z,1.90
2019-03-08T04:08:13.348Z,1.50
2019-03-08T04:09:13.364Z,2.10
2019-03-08T04:10:13.378Z,3.40
2019-03-08T04:11:13.395Z,1.10
2019-03-08T04:12:13.410Z,2.10
2019-03-08T04:13:13.425Z,1.50
2019-03-08T04:14:13.440Z,1.70
2019-03-08T04:15:13.455Z,1.50
2019-03-08T04:16:13.471Z,2.50
2019-03-08T04:17:13.487Z,1.50
2019-03-08T04:18:13.499Z,1.10
2019-03-08T04:19:13.516Z,2.20
2019-03-08T04:20:13.531Z,1.30
2019-03-08T04:21:13.544Z,5.40
2019-03-08T04:22:13.560Z,1.70
2019-03-08T04:23:13.578Z,1.10
2019-03-08T04:24:13.601Z,2.30
2019-03-08T04:25:13.611Z,3.40
2019-03-08T04:26:13.621Z,2.60
2019-03-08T04:27:13.638Z,3.80
2019-03-08T04:28:13.653Z,1.20
2019-03-08T04:29:13.669Z,2.10
2019-03-08T04:30:13.684Z,2.60
2019-03-08T04:31:13.701Z,2.30
2019-03-08T04:32:13.714Z,2.30
2019-03-08T04:33:13.729Z,2.20
2019-03-08T04:34:13.743Z,2.60
2019-03-08T04:35:13.763Z,1.70
2019-03-08T04:36:13.774Z,2.00
2019-03-08T04:37:13.790Z,3.40
2019-03-08T04:38:13.806Z,3.30
2019-03-08T04:39:13.821Z,5.20
2019-03-08T04:40:13.838Z,2.00
2019-03-08T04:41:13.851Z,2.20
2019-03-08T04:42:13.867Z,1.20
2019-03-08T04:43:13.881Z,1.40
2019-03-08T04:44:13.898Z,1.70
2019-03-08T04:45:13.916Z,1.50
2019-03-08T04:46:13.927Z,2.70
2019-03-08T04:47:13.941Z,1.70
2019-03-08T04:48:13.958Z,2.10
2019-03-08T04:49:13.974Z,1.50
2019-03-08T04:50:13.990Z,7.60
2019-03-08T04:51:14.003Z,2.50
2019-03-08T04:52:14.019Z,1.60
2019-03-08T04:53:14.035Z,1.20
2019-03-08T04:54:14.051Z,2.10
2019-03-08T04:55:14.066Z,4.10
2019-03-08T04:56:14.080Z,2.00
2019-03-08T04:57:14.101Z,3.00
2019-03-08T04:58:14.112Z,1.60
2019-03-08T04:59:14.129Z,2.20
2019-03-08T05:00:14.142Z,1.80
2019-03-08T05:01:14.158Z,1.40
2019-03-08T05:02:14.174Z,1.20
2019-03-08T05:03:14.190Z,3.90
2019-03-08T05:04:14.219Z,2.00
2019-03-08T05:05:14.222Z,2.00
2019-03-08T05:06:14.236Z,1.50
2019-03-08T05:07:14.252Z,2.80
2019-03-08T05:08:14.268Z,2.80
2019-03-08T05:09:14.283Z,3.30
2019-03-08T05:10:14.301Z,2.50
2019-03-08T05:11:14.316Z,2.90
2019-03-08T05:12:14.334Z,2.60
2019-03-08T05:13:14.345Z,1.00
2019-03-08T05:14:14.361Z,1.20
2019-03-08T05:15:14.387Z,1.30
2019-03-08T05:16:14.392Z,1.30
2019-03-08T05:17:14.411Z,3.90
2019-03-08T05:18:14.419Z,1.80
2019-03-08T05:19:14.438Z,4.70
2019-03-08T05:20:14.458Z,4.60
2019-03-08T05:21:14.470Z,1.10
2019-03-08T05:22:14.486Z,1.40
2019-03-08T05:23:14.501Z,1.70
2019-03-08T05:24:14.602Z,1.60
2019-03-08T05:25:14.597Z,1.50
2019-03-08T05:26:14.596Z,2.80
2019-03-08T05:27:14.607Z,2.50
2019-03-08T05:28:14.622Z,1.40
2019-03-08T05:29:14.653Z,1.40
2019-03-08T05:30:14.654Z,2.90
2019-03-08T05:31:14.660Z,1.80
2019-03-08T05:32:14.647Z,2.30
2019-03-08T05:33:14.659Z,2.50
2019-03-08T05:34:14.677Z,1.60
2019-03-08T05:35:14.694Z,1.40
2019-03-08T05:36:14.705Z,1.90
2019-03-08T05:37:14.720Z,1.60
2019-03-08T05:38:14.738Z,1.20
2019-03-08T05:39:14.752Z,3.60
2019-03-08T05:40:14.770Z,3.50
2019-03-08T05:41:14.786Z,2.10
2019-03-08T05:42:14.799Z,2.50
2019-03-08T05:43:14.814Z,2.80
2019-03-08T05:44:14.831Z,2.20
2019-03-08T05:45:14.847Z,2.20
2019-03-08T05:46:14.864Z,1.60
2019-03-08T05:47:14.881Z,1.60
2019-03-08T05:48:14.894Z,3.10
2019-03-08T05:49:14.912Z,2.20
2019-03-08T05:50:14.926Z,1.40
2019-03-08T05:51:14.945Z,1.90
2019-03-08T05:52:14.961Z,4.00
2019-03-08T05:53:14.982Z,1.80
2019-03-08T05:54:14.991Z,1.40
2019-03-08T05:55:15.003Z,1.60
2019-03-08T05:56:15.022Z,1.40
2019-03-08T05:57:15.074Z,2.60
2019-03-08T05:58:15.054Z,1.70
2019-03-08T05:59:15.070Z,0.90
2019-03-08T06:00:15.085Z,2.50
2019-03-08T06:01:15.104Z,2.80
2019-03-08T06:02:15.121Z,1.70
2019-03-08T06:03:15.133Z,1.90
2019-03-08T06:04:15.148Z,2.10
2019-03-08T06:05:15.168Z,1.70
2019-03-08T06:06:15.181Z,2.20
2019-03-08T06:07:15.196Z,3.70
2019-03-08T06:08:15.213Z,1.30
2019-03-08T06:09:15.230Z,3.00
2019-03-08T06:10:15.244Z,3.50
2019-03-08T06:11:15.261Z,2.00
2019-03-08T06:12:15.277Z,1.70
2019-03-08T06:13:15.294Z,2.50
2019-03-08T06:14:15.309Z,2.20
2019-03-08T06:15:15.326Z,2.90
2019-03-08T06:16:15.341Z,1.20
2019-03-08T06:17:15.364Z,1.70
2019-03-08T06:18:15.373Z,3.40
2019-03-08T06:19:15.388Z,3.10
2019-03-08T06:20:15.404Z,1.20
2019-03-08T06:21:15.424Z,1.20
2019-03-08T06:22:15.436Z,1.80
2019-03-08T06:23:15.454Z,2.20
2019-03-08T06:24:15.471Z,1.50
2019-03-08T06:25:15.487Z,2.10
2019-03-08T06:26:15.500Z,2.30
2019-03-08T06:27:15.517Z,2.90
2019-03-08T06:28:15.534Z,1.40
2019-03-08T06:29:15.550Z,2.40
2019-03-08T06:30:15.563Z,2.50
2019-03-08T06:31:15.584Z,2.00
2019-03-08T06:32:15.597Z,1.40
2019-03-08T06:33:15.618Z,2.10
2019-03-08T06:34:15.631Z,1.50
2019-03-08T06:35:15.649Z,3.10
2019-03-08T06:36:15.666Z,2.20
2019-03-08T06:37:15.681Z,1.50
2019-03-08T06:38:15.696Z,4.80
2019-03-08T06:39:15.712Z,1.40
2019-03-08T06:40:15.730Z,2.00
2019-03-08T06:41:15.745Z,1.90
2019-03-08T06:42:15.760Z,3.10
2019-03-08T06:43:15.778Z,2.50
2019-03-08T06:44:15.796Z,1.70
2019-03-08T06:45:16.657Z,2.10
2019-03-08T06:46:15.826Z,2.80
2019-03-08T06:47:15.843Z,1.70
2019-03-08T06:48:15.859Z,2.40
2019-03-08T06:49:15.919Z,2.10
2019-03-08T06:50:15.895Z,1.80
2019-03-08T06:51:15.910Z,2.60
2019-03-08T06:52:15.926Z,3.20
2019-03-08T06:53:15.942Z,1.40
2019-03-08T06:54:15.959Z,1.70
2019-03-08T06:55:15.976Z,1.10
2019-03-08T06:56:15.989Z,1.10
2019-03-08T06:57:16.008Z,1.10
2019-03-08T06:58:16.025Z,2.50
2019-03-08T06:59:16.040Z,1.50
2019-03-08T07:00:16.056Z,2.40
2019-03-08T07:01:16.078Z,1.00
2019-03-08T07:02:16.090Z,1.00
2019-03-08T07:03:16.104Z,1.70
2019-03-08T07:04:16.123Z,2.40
2019-03-08T07:05:16.141Z,1.60
2019-03-08T07:06:16.156Z,0.90
2019-03-08T07:07:16.169Z,2.00
2019-03-08T07:08:16.189Z,1.40
2019-03-08T07:09:16.203Z,1.20
2019-03-08T07:10:16.221Z,3.20
2019-03-08T07:11:16.241Z,1.70
2019-03-08T07:12:16.255Z,1.40
2019-03-08T07:13:16.271Z,2.60
2019-03-08T07:14:16.287Z,1.50
2019-03-08T07:15:16.304Z,2.10
2019-03-08T07:16:16.321Z,2.70
2019-03-08T07:17:16.338Z,1.50
2019-03-08T07:18:16.352Z,2.40
2019-03-08T07:19:16.459Z,2.40
2019-03-08T07:20:16.449Z,1.90
2019-03-08T07:21:16.456Z,1.80
2019-03-08T07:22:16.455Z,2.80
2019-03-08T07:23:16.463Z,1.40
2019-03-08T07:24:16.488Z,1.50
2019-03-08T07:25:16.517Z,2.10
2019-03-08T07:26:16.509Z,2.30
2019-03-08T07:27:16.516Z,1.30
2019-03-08T07:28:16.523Z,1.20
2019-03-08T07:29:16.534Z,1.30
2019-03-08T07:30:16.550Z,2.30
2019-03-08T07:31:16.568Z,2.00
2019-03-08T07:32:17.605Z,2.10
2019-03-08T07:33:16.600Z,1.40
2019-03-08T07:34:16.616Z,1.10
2019-03-08T07:35:16.632Z,1.50
2019-03-08T07:36:16.650Z,1.60
2019-03-08T07:37:16.667Z,2.00
2019-03-08T07:38:16.682Z,1.20
2019-03-08T07:39:16.700Z,1.50
2019-03-08T07:40:16.720Z,1.00
2019-03-08T07:41:16.736Z,1.60
2019-03-08T07:42:16.749Z,1.90
2019-03-08T07:43:16.764Z,3.40
2019-03-08T07:44:16.786Z,2.40
2019-03-08T07:45:16.801Z,1.30
2019-03-08T07:46:16.820Z,3.00
2019-03-08T07:47:16.832Z,2.40
2019-03-08T07:48:16.852Z,2.20
2019-03-08T07:49:16.865Z,2.40
2019-03-08T07:50:16.883Z,1.60
2019-03-08T07:51:16.902Z,1.50
2019-03-08T07:52:16.916Z,2.00
2019-03-08T07:53:16.934Z,0.90
2019-03-08T07:54:16.950Z,1.40
2019-03-08T07:55:16.968Z,1.50
2019-03-08T07:56:16.986Z,0.90
2019-03-08T07:57:16.999Z,2.30
2019-03-08T07:58:17.017Z,1.20
2019-03-08T07:59:17.036Z,3.50
2019-03-08T08:00:17.053Z,2.00
2019-03-08T08:01:17.068Z,2.20
2019-03-08T08:02:17.088Z,2.30
2019-03-08T08:03:17.103Z,1.30
2019-03-08T08:04:17.119Z,2.40
2019-03-08T08:05:17.136Z,1.30
2019-03-08T08:06:17.155Z,2.20
2019-03-08T08:07:17.172Z,1.40
2019-03-08T08:08:17.191Z,1.60
2019-03-08T08:09:17.204Z,1.50
2019-03-08T08:10:17.221Z,1.60
2019-03-08T08:11:17.238Z,1.80
2019-03-08T08:12:17.273Z,1.10
2019-03-08T08:13:17.280Z,2.70
2019-03-08T08:14:17.290Z,1.30
2019-03-08T08:15:17.310Z,1.60
2019-03-08T08:16:17.327Z,3.30
2019-03-08T08:17:17.344Z,2.70
2019-03-08T08:18:17.364Z,1.40
2019-03-08T08:19:17.379Z,1.90
2019-03-08T08:20:17.395Z,2.70
2019-03-08T08:21:17.414Z,1.50
2019-03-08T08:22:17.433Z,1.50
2019-03-08T08:23:17.449Z,1.40
2019-03-08T08:24:17.467Z,1.50
2019-03-08T08:25:17.484Z,1.40
2019-03-08T08:26:17.500Z,2.00
2019-03-08T08:27:17.516Z,2.60
2019-03-08T08:28:17.534Z,3.00
2019-03-08T08:29:17.552Z,1.40
2019-03-08T08:30:17.574Z,3.50
2019-03-08T08:31:17.587Z,2.60
2019-03-08T08:32:17.603Z,1.80
2019-03-08T08:33:17.620Z,1.90
2019-03-08T08:34:17.635Z,3.40
2019-03-08T08:35:17.654Z,1.60
2019-03-08T08:36:17.672Z,2.50
2019-03-08T08:37:17.692Z,3.40
2019-03-08T08:38:17.706Z,2.40
2019-03-08T08:39:17.725Z,1.70
2019-03-08T08:40:17.739Z,2.10
2019-03-08T08:41:17.761Z,2.50
2019-03-08T08:42:17.776Z,2.80
2019-03-08T08:43:17.792Z,1.70
2019-03-08T08:44:17.811Z,3.80
2019-03-08T08:45:17.828Z,1.90
2019-03-08T08:46:17.844Z,2.20
2019-03-08T08:47:17.860Z,2.70
2019-03-08T08:48:17.880Z,3.00
2019-03-08T08:49:17.895Z,1.60
2019-03-08T08:50:17.915Z,2.60
2019-03-08T08:51:17.931Z,2.20
2019-03-08T08:52:17.947Z,1.70
2019-03-08T08:53:17.966Z,2.60
2019-03-08T08:54:17.984Z,1.90
2019-03-08T08:55:18.000Z,1.80
2019-03-08T08:56:18.015Z,3.40
2019-03-08T08:57:18.036Z,1.70
2019-03-08T08:58:18.050Z,3.30
2019-03-08T08:59:18.069Z,2.70
2019-03-08T09:00:18.088Z,1.70
2019-03-08T09:01:18.103Z,2.00
2019-03-08T09:02:18.120Z,2.40
2019-03-08T09:03:18.136Z,1.90
2019-03-08T09:04:18.154Z,3.00
2019-03-08T09:05:18.172Z,2.50
2019-03-08T09:06:18.187Z,4.10
2019-03-08T09:07:18.206Z,3.40
2019-03-08T09:08:18.224Z,2.00
2019-03-08T09:09:18.275Z,1.90
2019-03-08T09:10:18.323Z,4.40
2019-03-08T09:11:18.335Z,1.70
2019-03-08T09:12:18.314Z,2.60
2019-03-08T09:13:18.381Z,2.90
2019-03-08T09:14:18.383Z,2.20
2019-03-08T09:15:18.386Z,2.10
2019-03-08T09:16:18.378Z,2.10
2019-03-08T09:17:18.386Z,2.00
2019-03-08T09:18:18.398Z,1.70
2019-03-08T09:19:18.415Z,2.00
2019-03-08T09:20:18.430Z,3.30
2019-03-08T09:21:18.446Z,3.40
2019-03-08T09:22:18.464Z,1.90
2019-03-08T09:23:18.482Z,2.20
2019-03-08T09:24:18.498Z,3.50
2019-03-08T09:25:18.517Z,2.70
2019-03-08T09:26:18.533Z,4.40
2019-03-08T09:27:18.551Z,4.60
2019-03-08T09:28:18.567Z,4.50
2019-03-08T09:29:18.586Z,4.30
2019-03-08T09:30:18.605Z,3.70
2019-03-08T09:31:18.620Z,3.00
2019-03-08T09:32:18.636Z,3.40
2019-03-08T09:33:18.654Z,2.90
2019-03-08T09:34:18.673Z,3.80
2019-03-08T09:35:18.690Z,3.10
2019-03-08T09:36:18.705Z,3.60
2019-03-08T09:37:18.720Z,2.60
2019-03-08T09:38:18.739Z,2.70
2019-03-08T09:39:18.759Z,2.40
2019-03-08T09:40:18.772Z,4.90
2019-03-08T09:41:18.792Z,5.80
2019-03-08T09:42:18.808Z,4.30
2019-03-08T09:43:18.826Z,2.70
2019-03-08T09:44:18.843Z,3.40
2019-03-08T09:45:18.859Z,4.20
2019-03-08T09:46:18.881Z,3.10
2019-03-08T09:47:18.896Z,2.60
2019-03-08T09:48:18.912Z,3.10
2019-03-08T09:49:18.932Z,3.10
2019-03-08T09:50:18.950Z,3.80
2019-03-08T09:51:18.966Z,2.20
2019-03-08T09:52:18.984Z,4.20
2019-03-08T09:53:19.004Z,3.50
2019-03-08T09:54:19.019Z,3.00
2019-03-08T09:55:19.035Z,3.90
2019-03-08T09:56:19.054Z,3.40
2019-03-08T09:57:19.072Z,3.80
2019-03-08T09:58:19.089Z,3.40
2019-03-08T09:59:19.105Z,4.50
2019-03-08T10:00:19.124Z,3.50
2019-03-08T10:01:19.141Z,2.90
2019-03-08T10:02:19.161Z,3.50
2019-03-08T10:03:19.176Z,2.90
2019-03-08T10:04:19.198Z,4.80
2019-03-08T10:05:19.215Z,4.80
2019-03-08T10:06:19.230Z,5.40
2019-03-08T10:07:19.249Z,4.60
2019-03-08T10:08:19.279Z,3.80
2019-03-08T10:09:19.283Z,3.30
2019-03-08T10:10:19.299Z,3.50
2019-03-08T10:11:19.318Z,5.10
2019-03-08T10:12:19.335Z,3.20
2019-03-08T10:13:19.355Z,4.00
2019-03-08T10:14:19.369Z,3.50
2019-03-08T10:15:19.389Z,2.50
2019-03-08T10:16:19.425Z,4.50
2019-03-08T10:17:19.425Z,3.00
2019-03-08T10:18:19.441Z,2.90
2019-03-08T10:19:19.459Z,3.40
2019-03-08T10:20:19.480Z,4.30
2019-03-08T10:21:19.501Z,4.50
2019-03-08T10:22:19.514Z,2.70
2019-03-08T10:23:20.085Z,3.40
2019-03-08T10:24:19.567Z,3.50
2019-03-08T10:25:19.570Z,4.30
2019-03-08T10:26:19.586Z,2.70
2019-03-08T10:27:19.605Z,3.10
2019-03-08T10:28:19.624Z,7.10
2019-03-08T10:29:19.644Z,3.30
2019-03-08T10:30:19.662Z,4.60
2019-03-08T10:31:19.679Z,3.50
2019-03-08T10:32:19.698Z,5.00
2019-03-08T10:33:19.718Z,3.90
2019-03-08T10:34:19.734Z,3.50
2019-03-08T10:35:23.760Z,5.50
2019-03-08T10:36:19.774Z,2.90
2019-03-08T10:37:19.790Z,2.70
2019-03-08T10:38:22.753Z,3.20
2019-03-08T10:39:19.828Z,2.30
2019-03-08T10:40:19.850Z,3.40
2019-03-08T10:41:19.868Z,2.00
2019-03-08T10:42:19.884Z,2.80
2019-03-08T10:43:19.909Z,2.50
2019-03-08T10:44:19.924Z,2.10
2019-03-08T10:45:19.948Z,1.70
2019-03-08T10:46:19.962Z,1.60
2019-03-08T10:47:19.985Z,2.30
2019-03-08T10:48:19.999Z,2.10
2019-03-08T10:49:20.022Z,2.50
2019-03-08T10:50:20.039Z,2.60
2019-03-08T10:51:20.058Z,2.50
2019-03-08T10:52:20.080Z,2.40
2019-03-08T10:53:20.110Z,1.80
2019-03-08T10:54:20.169Z,2.60
2019-03-08T10:55:20.184Z,3.00
2019-03-08T10:56:20.196Z,1.70
2019-03-08T10:57:20.254Z,2.40
2019-03-08T10:58:20.256Z,1.30
2019-03-08T10:59:20.255Z,2.40
2019-03-08T11:00:20.251Z,2.30
2019-03-08T11:01:20.255Z,1.60
2019-03-08T11:02:20.276Z,2.30
2019-03-08T11:03:20.296Z,1.30
2019-03-08T11:04:20.314Z,2.20
2019-03-08T11:05:20.335Z,2.40
2019-03-08T11:06:20.354Z,4.40
2019-03-08T11:07:20.372Z,2.20
2019-03-08T11:08:29.370Z,2.40
2019-03-08T11:09:20.411Z,2.90
2019-03-08T11:10:20.430Z,2.60
2019-03-08T11:11:20.449Z,2.40
2019-03-08T11:12:20.469Z,2.10
2019-03-08T11:13:20.490Z,1.90
2019-03-08T11:14:20.509Z,1.90
2019-03-08T11:15:24.335Z,3.40
2019-03-08T11:16:20.546Z,6.20
2019-03-08T11:17:20.565Z,4.70
2019-03-08T11:18:20.585Z,3.50
2019-03-08T11:19:20.603Z,3.00
2019-03-08T11:20:20.618Z,4.60
2019-03-08T11:21:20.683Z,4.90
2019-03-08T11:22:20.658Z,4.00
2019-03-08T11:23:20.677Z,4.10
2019-03-08T11:24:20.694Z,3.20
2019-03-08T11:25:20.710Z,2.80
2019-03-08T11:26:20.729Z,3.20
2019-03-08T11:27:20.746Z,1.40
2019-03-08T11:28:21.280Z,4.60
2019-03-08T11:29:20.784Z,2.50
2019-03-08T11:30:21.864Z,2.70
2019-03-08T11:31:20.817Z,3.70
2019-03-08T11:32:23.362Z,2.30
2019-03-08T11:33:20.853Z,3.30
2019-03-08T11:34:20.866Z,2.50
2019-03-08T11:35:20.883Z,2.30
2019-03-08T11:36:20.905Z,4.60
2019-03-08T11:37:20.919Z,1.80
2019-03-08T11:38:22.657Z,6.60
2019-03-08T11:39:20.951Z,3.00
2019-03-08T11:40:20.969Z,2.90
2019-03-08T11:41:20.982Z,1.60
2019-03-08T11:42:20.999Z,4.10
2019-03-08T11:43:21.016Z,4.80
2019-03-08T11:44:21.031Z,2.60
2019-03-08T11:45:21.048Z,3.20
2019-03-08T11:46:21.061Z,4.90
2019-03-08T11:47:21.079Z,4.90
2019-03-08T11:48:21.096Z,3.90
2019-03-08T11:49:21.112Z,4.40
2019-03-08T11:50:21.122Z,3.70
2019-03-08T11:51:21.144Z,2.40
2019-03-08T11:52:21.158Z,7.50
2019-03-08T11:53:21.171Z,1.60
2019-03-08T11:54:21.188Z,3.50
2019-03-08T11:55:21.202Z,2.60
2019-03-08T11:56:21.217Z,3.90
2019-03-08T11:57:21.233Z,4.90
2019-03-08T11:58:21.250Z,4.30
2019-03-08T11:59:21.265Z,4.50
2019-03-08T12:00:21.280Z,3.70
2019-03-08T12:01:21.301Z,4.60
2019-03-08T12:02:21.564Z,1.80
2019-03-08T12:03:21.331Z,5.80
2019-03-08T12:04:21.345Z,6.20
2019-03-08T12:05:21.362Z,3.80
2019-03-08T12:06:21.379Z,6.40
2019-03-08T12:07:21.403Z,4.10
2019-03-08T12:08:21.408Z,6.20
2019-03-08T12:09:21.425Z,4.80
2019-03-08T12:10:21.445Z,6.00
2019-03-08T12:11:21.458Z,3.70
2019-03-08T12:12:21.474Z,6.10
2019-03-08T12:13:21.490Z,3.40
2019-03-08T12:14:21.505Z,5.90
2019-03-08T12:15:21.521Z,8.40
2019-03-08T12:16:21.539Z,8.10
2019-03-08T12:17:21.554Z,5.30
2019-03-08T12:18:21.572Z,6.20
2019-03-08T12:19:21.586Z,3.00
2019-03-08T12:20:21.604Z,4.50
2019-03-08T12:21:21.620Z,9.00
2019-03-08T12:22:21.636Z,4.00
2019-03-08T12:23:21.651Z,6.80
2019-03-08T12:24:21.670Z,6.00
2019-03-08T12:25:21.685Z,8.50
2019-03-08T12:26:21.715Z,6.80
2019-03-08T12:27:21.719Z,11.40
2019-03-08T12:28:21.734Z,9.00
2019-03-08T12:29:21.749Z,7.60
2019-03-08T12:30:21.769Z,8.10
2019-03-08T12:31:21.784Z,7.60
2019-03-08T12:32:23.475Z,8.40
2019-03-08T12:33:21.822Z,6.40
2019-03-08T12:34:21.833Z,8.20
2019-03-08T12:35:21.850Z,7.80
2019-03-08T12:36:21.867Z,4.90
2019-03-08T12:37:21.884Z,11.00
2019-03-08T12:38:21.901Z,7.40
2019-03-08T12:39:21.919Z,5.00
2019-03-08T12:40:21.934Z,8.90
2019-03-08T12:41:21.951Z,10.90
2019-03-08T12:42:21.985Z,10.10
2019-03-08T12:43:22.058Z,7.70
2019-03-08T12:44:22.048Z,8.60
2019-03-08T12:45:22.061Z,5.50
2019-03-08T12:46:22.055Z,8.50
2019-03-08T12:47:22.127Z,9.40
2019-03-08T12:48:24.105Z,6.20
2019-03-08T12:49:22.116Z,9.70
2019-03-08T12:50:22.114Z,11.10
2019-03-08T12:51:22.114Z,8.10
2019-03-08T12:52:22.135Z,6.70
2019-03-08T12:53:22.151Z,10.30
2019-03-08T12:54:22.167Z,7.60
2019-03-08T12:55:22.184Z,8.20
2019-03-08T12:56:22.201Z,6.50
2019-03-08T12:57:22.218Z,8.30
2019-03-08T12:58:22.234Z,8.30
2019-03-08T12:59:22.253Z,5.60
2019-03-08T13:00:22.269Z,10.30
2019-03-08T13:01:22.287Z,4.70
2019-03-08T13:02:22.306Z,7.80
2019-03-08T13:03:22.320Z,3.60
2019-03-08T13:04:22.341Z,7.50
2019-03-08T13:05:22.355Z,7.90
2019-03-08T13:06:22.372Z,7.60
2019-03-08T13:07:22.389Z,6.50
2019-03-08T13:08:22.405Z,8.90
2019-03-08T13:09:22.424Z,7.60
2019-03-08T13:10:22.441Z,8.00
2019-03-08T13:11:22.457Z,6.20
2019-03-08T13:12:22.475Z,7.90
2019-03-08T13:13:22.495Z,4.90
2019-03-08T13:14:22.506Z,8.60
2019-03-08T13:15:22.524Z,7.10
2019-03-08T13:16:22.540Z,7.90
2019-03-08T13:17:22.558Z,6.30
2019-03-08T13:18:22.575Z,7.30